createdAt,value
2022-11-10T00:01:14.363Z,50.30
2022-11-10T00:04:00.868Z,50.30
2022-11-10T00:06:47.646Z,50.30
2022-11-10T00:09:34.278Z,50.30
2022-11-10T00:12:20.719Z,50.40
2022-11-10T00:15:28.852Z,50.40
2022-11-10T00:18:15.333Z,50.30
2022-11-10T00:21:09.579Z,50.40
2022-11-10T00:23:55.729Z,50.40
2022-11-10T00:26:42.107Z,50.40
2022-11-10T00:29:28.563Z,50.40
2022-11-10T00:32:16.237Z,50.30
2022-11-10T00:35:02.485Z,50.40
2022-11-10T00:37:50.495Z,50.50
2022-11-10T00:40:36.716Z,50.40
2022-11-10T00:43:26.544Z,50.50
2022-11-10T00:46:13.462Z,50.50
2022-11-10T00:49:01.198Z,50.50
2022-11-10T00:51:47.701Z,50.50
2022-11-10T00:54:34.160Z,50.50
2022-11-10T00:57:20.767Z,50.50
2022-11-10T01:00:08.455Z,50.40
2022-11-10T01:02:54.767Z,50.50
2022-11-10T01:05:42.650Z,50.50
2022-11-10T01:08:28.886Z,50.50
2022-11-10T01:11:16.584Z,50.50
2022-11-10T01:14:02.985Z,50.50
2022-11-10T01:16:49.409Z,50.50
2022-11-10T01:19:35.751Z,50.50
2022-11-10T01:22:23.444Z,50.50
2022-11-10T01:25:10.371Z,50.40
2022-11-10T01:27:57.174Z,50.50
2022-11-10T01:30:43.799Z,50.40
2022-11-10T01:33:30.584Z,50.50
2022-11-10T01:36:17.080Z,50.50
2022-11-10T01:39:04.833Z,50.40
2022-11-10T01:41:51.193Z,50.40
2022-11-10T01:44:37.651Z,50.50
2022-11-10T01:47:23.975Z,50.50
2022-11-10T01:50:10.470Z,50.50
2022-11-10T01:52:58.113Z,50.50
2022-11-10T01:55:45.959Z,50.40
2022-11-10T01:58:33.857Z,50.50
2022-11-10T02:01:20.144Z,50.50
2022-11-10T02:04:07.489Z,51.10
2022-11-10T02:06:53.962Z,50.50
2022-11-10T02:09:40.373Z,50.50
2022-11-10T02:12:37.641Z,50.40
2022-11-10T02:15:23.770Z,50.50
2022-11-10T02:18:10.190Z,50.50
2022-11-10T02:20:58.083Z,50.50
2022-11-10T02:23:45.725Z,50.40
2022-11-10T02:26:32.216Z,50.50
2022-11-10T02:29:18.741Z,50.50
2022-11-10T02:32:05.415Z,50.50
2022-11-10T02:34:51.522Z,50.50
2022-11-10T02:37:39.288Z,50.50
2022-11-10T02:40:25.700Z,50.50
2022-11-10T02:43:13.188Z,50.50
2022-11-10T02:45:59.665Z,50.50
2022-11-10T02:48:46.178Z,50.50
2022-11-10T02:51:32.382Z,50.50
2022-11-10T02:54:20.053Z,50.50
2022-11-10T02:57:06.523Z,50.50
2022-11-10T02:59:52.902Z,50.60
2022-11-10T03:02:39.087Z,50.50
2022-11-10T03:05:25.617Z,50.50
2022-11-10T03:08:12.021Z,50.60
2022-11-10T03:10:59.876Z,50.60
2022-11-10T03:14:00.935Z,50.60
2022-11-10T03:16:47.881Z,50.60
2022-11-10T03:19:34.336Z,50.60
2022-11-10T03:22:20.746Z,50.60
2022-11-10T03:25:07.643Z,50.60
2022-11-10T03:27:55.404Z,50.60
2022-11-10T03:30:42.628Z,51.20
2022-11-10T03:33:28.740Z,50.60
2022-11-10T03:36:15.167Z,50.60
2022-11-10T03:39:01.853Z,50.60
2022-11-10T03:41:47.922Z,50.70
2022-11-10T03:44:35.527Z,50.60
2022-11-10T03:47:22.097Z,50.60
2022-11-10T03:50:08.970Z,50.60
2022-11-10T03:52:55.243Z,50.60
2022-11-10T03:55:41.654Z,50.60
2022-11-10T03:58:28.044Z,50.60
2022-11-10T04:01:15.765Z,50.60
2022-11-10T04:04:02.255Z,50.60
2022-11-10T04:07:08.300Z,50.60
2022-11-10T04:09:54.563Z,50.60
2022-11-10T04:12:58.044Z,50.60
2022-11-10T04:15:44.600Z,50.60
2022-11-10T04:18:32.042Z,50.70
2022-11-10T04:21:18.187Z,50.60
2022-11-10T04:24:04.951Z,50.70
2022-11-10T04:26:51.082Z,50.70
2022-11-10T04:29:37.474Z,50.70
2022-11-10T04:32:23.834Z,50.70
2022-11-10T04:35:11.783Z,50.60
2022-11-10T04:37:57.922Z,50.70
2022-11-10T04:40:44.394Z,50.60
2022-11-10T04:43:31.030Z,50.60
2022-11-10T04:46:21.919Z,50.60
2022-11-10T04:49:08.245Z,50.70
2022-11-10T04:51:55.973Z,50.60
2022-11-10T04:54:42.890Z,50.50
2022-11-10T04:57:29.262Z,50.60
2022-11-10T05:00:18.769Z,50.50
2022-11-10T05:03:06.639Z,50.50
2022-11-10T05:05:52.875Z,50.50
2022-11-10T05:08:42.101Z,50.50
2022-11-10T05:11:28.346Z,50.60
2022-11-10T05:14:14.796Z,50.60
2022-11-10T05:17:01.118Z,50.50
2022-11-10T05:19:48.034Z,51.20
2022-11-10T05:22:34.605Z,50.60
2022-11-10T05:25:22.154Z,50.50
2022-11-10T05:28:09.805Z,50.50
2022-11-10T05:30:56.170Z,50.60
2022-11-10T05:33:42.783Z,50.50
2022-11-10T05:36:29.289Z,50.50
2022-11-10T05:39:15.658Z,50.50
2022-11-10T05:42:03.431Z,50.50
2022-11-10T05:44:49.935Z,50.60
2022-11-10T05:47:37.199Z,50.50
2022-11-10T05:50:23.647Z,50.50
2022-11-10T05:53:09.811Z,50.50
2022-11-10T05:55:56.113Z,50.50
2022-11-10T05:58:43.762Z,50.40
2022-11-10T06:01:30.139Z,50.50
2022-11-10T06:04:16.418Z,50.50
2022-11-10T06:07:02.799Z,50.50
2022-11-10T06:09:49.236Z,50.50
2022-11-10T06:12:35.777Z,50.50
2022-11-10T06:15:23.834Z,50.40
2022-11-10T06:18:10.220Z,50.50
2022-11-10T06:20:56.561Z,50.50
2022-11-10T06:23:42.861Z,50.50
2022-11-10T06:26:29.178Z,50.50
2022-11-10T06:29:15.484Z,50.50
2022-11-10T06:32:03.163Z,50.50
2022-11-10T06:34:50.293Z,50.50
2022-11-10T06:37:38.618Z,50.50
2022-11-10T06:40:24.724Z,50.50
2022-11-10T06:43:11.260Z,50.50
2022-11-10T06:45:57.983Z,50.40
2022-11-10T06:48:45.488Z,50.50
2022-11-10T06:51:32.455Z,50.40
2022-11-10T06:54:18.958Z,50.50
2022-11-10T06:57:05.495Z,50.50
2022-11-10T06:59:51.932Z,50.50
2022-11-10T07:02:38.447Z,50.50
2022-11-10T07:05:26.207Z,50.40
2022-11-10T07:08:13.648Z,50.50
2022-11-10T07:11:00.132Z,50.40
2022-11-10T07:13:46.603Z,50.50
2022-11-10T07:16:33.196Z,50.40
2022-11-10T07:19:19.762Z,50.40
2022-11-10T07:22:11.028Z,50.40
2022-11-10T07:24:57.641Z,50.40
2022-11-10T07:27:43.819Z,50.40
2022-11-10T07:30:30.558Z,50.40
2022-11-10T07:33:16.996Z,50.30
2022-11-10T07:36:04.270Z,50.30
2022-11-10T07:38:51.749Z,50.40
2022-11-10T07:41:38.129Z,50.30
2022-11-10T07:44:24.403Z,50.30
2022-11-10T07:47:10.825Z,50.90
2022-11-10T07:49:57.146Z,50.30
2022-11-10T07:52:43.597Z,50.30
2022-11-10T07:55:31.180Z,50.80
2022-11-10T07:58:18.352Z,50.30
2022-11-10T08:01:04.590Z,50.30
2022-11-10T08:03:51.060Z,50.30
2022-11-10T08:06:37.514Z,50.20
2022-11-10T08:09:23.906Z,50.20
2022-11-10T08:12:11.515Z,50.20
2022-11-10T08:14:57.973Z,50.20
2022-11-10T08:17:44.448Z,50.20
2022-11-10T08:20:31.132Z,50.10
2022-11-10T08:23:17.765Z,50.10
2022-11-10T08:26:04.080Z,50.10
2022-11-10T08:28:51.928Z,50.00
2022-11-10T08:31:38.756Z,50.10
2022-11-10T08:34:25.050Z,50.10
2022-11-10T08:37:11.461Z,50.10
2022-11-10T08:39:58.001Z,50.10
2022-11-10T08:42:44.393Z,50.10
2022-11-10T08:45:32.353Z,50.10
2022-11-10T08:48:19.591Z,50.10
2022-11-10T08:51:05.974Z,50.10
2022-11-10T08:53:52.444Z,50.10
2022-11-10T08:56:38.771Z,50.10
2022-11-10T08:59:25.500Z,50.10
2022-11-10T09:02:12.987Z,50.10
2022-11-10T09:04:59.457Z,50.20
2022-11-10T09:07:48.804Z,50.10
2022-11-10T09:10:36.224Z,50.10
2022-11-10T09:13:28.964Z,50.10
2022-11-10T09:16:16.758Z,50.20
2022-11-10T09:19:04.659Z,50.10
2022-11-10T09:21:51.074Z,50.10
2022-11-10T09:24:37.451Z,50.20
2022-11-10T09:27:23.895Z,50.20
2022-11-10T09:30:17.251Z,50.10
2022-11-10T09:33:04.095Z,50.20
2022-11-10T09:35:52.209Z,50.20
2022-11-10T09:38:39.229Z,50.20
2022-11-10T09:41:26.599Z,50.20
2022-11-10T09:44:15.887Z,50.20
2022-11-10T09:47:04.746Z,50.20
2022-11-10T09:49:52.275Z,50.20
2022-11-10T09:52:39.684Z,50.20
2022-11-10T09:55:30.720Z,50.20
2022-11-10T09:58:18.254Z,50.20
2022-11-10T10:01:14.659Z,50.20
2022-11-10T10:04:06.285Z,50.20
2022-11-10T10:07:09.989Z,50.20
2022-11-10T10:10:01.873Z,50.20
2022-11-10T10:12:56.422Z,50.20
2022-11-10T10:15:45.340Z,50.20
2022-11-10T10:18:35.202Z,50.20
2022-11-10T10:21:33.108Z,50.30
2022-11-10T10:24:22.288Z,50.30
2022-11-10T10:27:20.805Z,50.30
2022-11-10T10:30:13.690Z,50.30
2022-11-10T10:33:04.087Z,50.30
2022-11-10T10:35:50.987Z,50.20
2022-11-10T10:38:38.749Z,50.20
2022-11-10T10:41:25.908Z,50.20
2022-11-10T10:44:14.778Z,50.20
2022-11-10T10:47:02.841Z,50.20
2022-11-10T10:49:49.370Z,50.20
2022-11-10T10:52:35.786Z,50.20
2022-11-10T10:55:22.322Z,50.20
2022-11-10T10:58:20.701Z,50.20
2022-11-10T11:01:22.903Z,50.70
2022-11-10T11:04:29.851Z,50.20
2022-11-10T11:07:21.523Z,50.20
2022-11-10T11:10:19.181Z,50.80
2022-11-10T11:13:23.923Z,50.20
2022-11-10T11:16:12.511Z,50.10
2022-11-10T11:18:59.187Z,50.10
2022-11-10T11:21:53.915Z,50.20
2022-11-10T11:24:42.708Z,50.20
2022-11-10T11:27:34.035Z,50.20
2022-11-10T11:30:21.097Z,50.20
2022-11-10T11:33:29.694Z,50.20
2022-11-10T11:36:23.517Z,50.20
2022-11-10T11:39:17.432Z,50.20
2022-11-10T11:42:08.890Z,50.20
2022-11-10T11:45:02.681Z,50.20
2022-11-10T11:47:58.958Z,50.20
2022-11-10T11:50:50.933Z,50.20
2022-11-10T11:53:43.808Z,50.20
2022-11-10T11:56:31.636Z,50.20
2022-11-10T11:59:28.943Z,50.40
2022-11-10T12:02:39.667Z,50.20
2022-11-10T12:05:38.254Z,50.20
2022-11-10T12:08:30.723Z,50.30
2022-11-10T12:11:19.938Z,50.20
2022-11-10T12:14:09.272Z,50.10
2022-11-10T12:16:58.774Z,50.20
2022-11-10T12:19:47.696Z,50.20
2022-11-10T12:22:37.148Z,50.40
2022-11-10T12:25:27.315Z,50.40
2022-11-10T12:28:16.649Z,50.40
2022-11-10T12:31:04.409Z,50.50
2022-11-10T12:33:51.828Z,50.50
2022-11-10T12:36:38.272Z,51.20
2022-11-10T12:39:25.411Z,50.50
2022-11-10T12:42:15.840Z,50.50
2022-11-10T12:45:03.021Z,50.60
2022-11-10T12:47:49.289Z,50.70
2022-11-10T12:50:43.381Z,50.60
2022-11-10T12:53:31.463Z,50.30
2022-11-10T12:56:19.652Z,50.20
2022-11-10T12:59:16.942Z,50.20
2022-11-10T13:02:04.488Z,49.60
2022-11-10T13:05:22.027Z,50.00
2022-11-10T13:08:21.225Z,49.80
2022-11-10T13:11:19.863Z,49.90
2022-11-10T13:14:22.153Z,49.90
2022-11-10T13:17:09.206Z,49.90
2022-11-10T13:19:55.907Z,49.80
2022-11-10T13:22:43.404Z,49.60
2022-11-10T13:25:43.187Z,49.70
2022-11-10T13:28:58.427Z,49.50
2022-11-10T13:31:56.795Z,49.40
2022-11-10T13:34:43.034Z,50.00
2022-11-10T13:37:50.668Z,49.70
2022-11-10T13:40:39.361Z,49.90
2022-11-10T13:43:27.393Z,49.90
2022-11-10T13:46:13.543Z,49.90
2022-11-10T13:49:24.377Z,49.90
2022-11-10T13:52:14.318Z,49.90
2022-11-10T13:55:23.899Z,50.00
2022-11-10T13:58:11.154Z,50.10
2022-11-10T14:01:23.649Z,49.90
2022-11-10T14:04:11.375Z,50.00
2022-11-10T14:06:57.645Z,49.90
2022-11-10T14:09:45.001Z,50.00
2022-11-10T14:12:32.241Z,50.00
2022-11-10T14:15:19.795Z,50.10
2022-11-10T14:18:15.686Z,50.10
2022-11-10T14:21:03.329Z,49.90
2022-11-10T14:23:51.396Z,50.10
2022-11-10T14:26:40.186Z,50.00
2022-11-10T14:29:29.035Z,50.00
2022-11-10T14:32:17.567Z,50.20
2022-11-10T14:35:04.262Z,50.20
2022-11-10T14:37:52.381Z,50.00
2022-11-10T14:40:42.005Z,49.90
2022-11-10T14:43:28.841Z,50.00
2022-11-10T14:46:15.688Z,50.20
2022-11-10T14:49:02.377Z,50.20
2022-11-10T14:51:48.555Z,50.10
2022-11-10T14:54:36.973Z,50.30
2022-11-10T14:57:23.285Z,50.90
2022-11-10T15:00:13.330Z,50.40
2022-11-10T15:03:00.188Z,50.20
2022-11-10T15:05:46.895Z,50.10
2022-11-10T15:08:33.468Z,50.30
2022-11-10T15:11:38.879Z,50.30
2022-11-10T15:14:39.435Z,49.80
2022-11-10T15:17:44.279Z,50.30
2022-11-10T15:20:35.170Z,50.10
2022-11-10T15:23:23.294Z,50.20
2022-11-10T15:26:19.329Z,50.30
2022-11-10T15:29:06.986Z,50.20
2022-11-10T15:31:53.476Z,50.40
2022-11-10T15:34:42.186Z,50.20
2022-11-10T15:37:31.085Z,50.30
2022-11-10T15:40:35.581Z,50.20
2022-11-10T15:43:28.302Z,50.00
2022-11-10T15:46:18.437Z,50.10
2022-11-10T15:49:05.266Z,50.20
2022-11-10T15:51:52.155Z,50.20
2022-11-10T15:54:38.600Z,50.10
2022-11-10T15:57:24.918Z,50.20
2022-11-10T16:00:13.342Z,50.10
2022-11-10T16:03:01.242Z,50.20
2022-11-10T16:05:48.367Z,50.10
2022-11-10T16:08:35.395Z,49.90
2022-11-10T16:11:22.246Z,50.00
2022-11-10T16:14:11.752Z,50.00
2022-11-10T16:16:57.804Z,49.70
2022-11-10T16:19:46.568Z,49.70
2022-11-10T16:22:33.066Z,49.60
2022-11-10T16:25:25.162Z,49.70
2022-11-10T16:28:13.905Z,49.50
2022-11-10T16:31:00.130Z,49.70
2022-11-10T16:33:46.961Z,49.70
2022-11-10T16:36:34.529Z,49.70
2022-11-10T16:39:20.887Z,49.60
2022-11-10T16:42:07.021Z,49.60
2022-11-10T16:44:53.526Z,49.50
2022-11-10T16:47:39.534Z,49.60
2022-11-10T16:50:30.352Z,49.50
2022-11-10T16:53:19.254Z,49.50
2022-11-10T16:56:05.845Z,49.30
2022-11-10T16:58:52.043Z,49.60
2022-11-10T17:01:38.523Z,49.40
2022-11-10T17:04:24.607Z,49.60
2022-11-10T17:07:11.964Z,49.60
2022-11-10T17:09:59.992Z,49.40
2022-11-10T17:12:46.429Z,49.40
2022-11-10T17:15:35.292Z,49.30
2022-11-10T17:18:23.890Z,49.30
2022-11-10T17:21:11.554Z,49.30
2022-11-10T17:23:58.204Z,49.20
2022-11-10T17:26:45.690Z,49.20
2022-11-10T17:29:32.108Z,49.30
2022-11-10T17:32:24.239Z,49.40
2022-11-10T17:35:18.175Z,49.50
2022-11-10T17:38:04.748Z,49.50
2022-11-10T17:40:51.179Z,49.50
2022-11-10T17:43:44.332Z,50.10
2022-11-10T17:46:31.707Z,49.50
2022-11-10T17:49:18.108Z,49.40
2022-11-10T17:52:05.009Z,49.50
2022-11-10T17:54:51.428Z,49.40
2022-11-10T17:57:37.751Z,49.50
2022-11-10T18:00:26.060Z,49.40
2022-11-10T18:03:14.242Z,49.40
2022-11-10T18:06:01.030Z,49.40
2022-11-10T18:08:47.183Z,49.40
2022-11-10T18:11:33.533Z,49.50
2022-11-10T18:14:19.881Z,49.40
2022-11-10T18:17:07.579Z,49.30
2022-11-10T18:19:53.779Z,50.00
2022-11-10T18:22:40.157Z,49.40
2022-11-10T18:25:26.527Z,49.40
2022-11-10T18:28:14.300Z,49.40
2022-11-10T18:31:06.289Z,49.40
2022-11-10T18:33:55.665Z,49.50
2022-11-10T18:36:41.966Z,49.50
2022-11-10T18:39:28.495Z,49.50
2022-11-10T18:42:14.818Z,49.50
2022-11-10T18:45:01.250Z,49.40
2022-11-10T18:47:47.683Z,49.40
2022-11-10T18:50:38.148Z,49.30
2022-11-10T18:53:24.651Z,49.30
2022-11-10T18:56:11.240Z,49.30
2022-11-10T18:58:57.494Z,49.30
2022-11-10T19:01:44.104Z,49.20
2022-11-10T19:04:30.244Z,49.30
2022-11-10T19:07:17.910Z,49.20
2022-11-10T19:10:04.819Z,49.20
2022-11-10T19:12:51.171Z,49.30
2022-11-10T19:15:40.830Z,49.30
2022-11-10T19:18:26.896Z,49.30
2022-11-10T19:21:14.263Z,49.30
2022-11-10T19:24:01.903Z,49.30
2022-11-10T19:26:50.466Z,49.30
2022-11-10T19:29:36.800Z,49.30
2022-11-10T19:32:25.021Z,49.30
2022-11-10T19:35:13.212Z,49.30
2022-11-10T19:37:59.352Z,49.30
2022-11-10T19:40:47.026Z,49.30
2022-11-10T19:43:33.538Z,49.30
2022-11-10T19:46:20.720Z,49.20
2022-11-10T19:49:06.918Z,49.30
2022-11-10T19:51:53.515Z,49.30
2022-11-10T19:54:39.775Z,49.30
2022-11-10T19:57:27.900Z,49.30
2022-11-10T20:00:16.676Z,49.30
2022-11-10T20:03:02.726Z,49.40
2022-11-10T20:05:49.045Z,49.40
2022-11-10T20:08:35.606Z,49.40
2022-11-10T20:11:23.045Z,49.30
2022-11-10T20:14:10.778Z,49.30
2022-11-10T20:16:57.055Z,49.20
2022-11-10T20:19:43.433Z,49.80
2022-11-10T20:22:29.879Z,49.20
2022-11-10T20:25:16.384Z,49.30
2022-11-10T20:28:03.438Z,49.40
2022-11-10T20:30:51.254Z,49.30
2022-11-10T20:33:37.823Z,49.40
2022-11-10T20:36:25.886Z,49.30
2022-11-10T20:39:11.966Z,49.30
2022-11-10T20:41:58.325Z,49.40
2022-11-10T20:44:44.755Z,49.40
2022-11-10T20:47:32.616Z,49.50
2022-11-10T20:50:23.992Z,49.50
2022-11-10T20:53:10.578Z,49.50
2022-11-10T20:55:58.719Z,49.60
2022-11-10T20:58:45.517Z,49.60
2022-11-10T21:01:32.440Z,49.70
2022-11-10T21:04:20.325Z,49.70
2022-11-10T21:07:06.685Z,49.80
2022-11-10T21:09:52.900Z,49.90
2022-11-10T21:12:51.614Z,49.90
2022-11-10T21:15:38.587Z,49.90
2022-11-10T21:18:25.260Z,49.90
2022-11-10T21:21:20.313Z,49.90
2022-11-10T21:24:07.265Z,50.00
2022-11-10T21:26:53.724Z,50.00
2022-11-10T21:29:42.163Z,50.00
2022-11-10T21:32:28.669Z,50.00
2022-11-10T21:35:14.957Z,50.00
2022-11-10T21:38:02.772Z,50.00
2022-11-10T21:40:49.194Z,50.00
2022-11-10T21:43:38.561Z,50.00
2022-11-10T21:46:25.141Z,50.00
2022-11-10T21:49:11.478Z,49.90
2022-11-10T21:51:58.089Z,49.80
2022-11-10T21:54:45.784Z,49.80
2022-11-10T21:57:32.149Z,49.80
2022-11-10T22:00:18.702Z,49.80
2022-11-10T22:03:05.612Z,49.90
2022-11-10T22:05:52.045Z,49.90
2022-11-10T22:08:39.143Z,49.80
2022-11-10T22:11:44.191Z,49.80
2022-11-10T22:14:48.067Z,49.80
2022-11-10T22:18:06.705Z,49.80
2022-11-10T22:20:53.376Z,49.80
2022-11-10T22:23:57.228Z,49.80
2022-11-10T22:26:44.805Z,49.80
2022-11-10T22:29:32.245Z,49.80
2022-11-10T22:32:18.722Z,49.80
2022-11-10T22:35:05.637Z,49.80
2022-11-10T22:37:52.475Z,49.30
2022-11-10T22:40:55.943Z,50.40
2022-11-10T22:44:01.155Z,49.80
2022-11-10T22:46:48.230Z,49.80
2022-11-10T22:49:34.787Z,49.70
2022-11-10T22:52:21.274Z,49.60
2022-11-10T22:55:07.946Z,49.60
2022-11-10T22:57:54.828Z,49.60
2022-11-10T23:00:42.683Z,49.60
2022-11-10T23:03:28.963Z,49.60
2022-11-10T23:06:15.513Z,49.50
2022-11-10T23:09:02.097Z,49.50
2022-11-10T23:11:48.587Z,49.40
2022-11-10T23:14:35.006Z,49.40
2022-11-10T23:17:23.019Z,49.40
2022-11-10T23:20:10.839Z,49.30
2022-11-10T23:22:57.142Z,49.30
2022-11-10T23:25:43.645Z,49.30
2022-11-10T23:28:30.493Z,49.20
2022-11-10T23:31:17.859Z,49.10
2022-11-10T23:34:05.698Z,49.10
2022-11-10T23:36:52.207Z,49.10
2022-11-10T23:39:38.577Z,49.00
2022-11-10T23:42:25.315Z,48.90
2022-11-10T23:45:11.986Z,48.90
2022-11-10T23:48:01.881Z,48.80
2022-11-10T23:50:51.945Z,48.80
2022-11-10T23:53:38.436Z,48.70
2022-11-10T23:56:25.112Z,48.60
2022-11-10T23:59:11.216Z,48.70
